Domremy, Canada
Current Conditions -  °F | °C
As of 3:18 AM on Monday 24 Nov 2014 (Local Time) from CYPA Reporting Station
Light Snow Light Snow  
Wind Chill:   Ceiling: 500
Heat Index:   Visibility: 12mi
Dew Point:   Wind: 2mph
Humidity: 85%   Direction: NA
Pressure: 29.87"   Gusts: NA
Location:  52.78°N, 105.73°W
Report Text: CYPA 240918Z VRB02KT 12SM -SN OVC005 M15/M17 A2987 RMK ST8 SLP155
Loading
Personal Weather Stations






























Interactive Weather Map New forecast layout! Learn more

10-Day Weather Forecast

Advertisements
Track Severe Weather on mobile